El Campo, TX

1:37 AM CDT on April 27, 2015 (GMT -0500)
Bay City | | Change Station
CLOSE
Current Station
Airport
Location: Bay City,
Elevation: 46 ft
Nearby Weather Stations
Active Advisory: Tornado Watch Active Notice: Local Storm Report

Elev 46 ft 28.97 °N, 95.86 °W | Updated 22 minutes ago

Overcast
Overcast
76 °F
Feels Like 76 °F
N
8
Wind Variable Wind from SE

Today
High -- | Low -- °F
--% Chance of Precip.
Yesterday
High -- | Low -- °F
Precip. -- in
6:47 AM 7:58 PM
Waxing Gibbous, 62% visible
Pressure 29.55 in
Visibility 5.0 miles
Clouds Overcast 600 ft
Dew Point 76 °F
Humidity 98%
Rainfall 0.00 in
Snow Depth Not available.
UV 0 out of 12
Pollen 7.30 out of 12
Air Quality Not available.
Flu Activity Local Activity
METAR KBYY 270615Z AUTO 13007KT 5SM BR OVC006 24/24 A2955 RMK AO2 T02450242

More Conditions Fewer Conditions

Pressure 29.55 in
Visibility 5.0 miles
Clouds Overcast 600 ft
Dew Point 76 °F
Humidity 98%
Rainfall 0.00 in
Snow Depth Not available.
UV 0 out of 12
Pollen 7.30 out of 12
Air Quality Not available.
Flu Activity Local Activity
METAR KBYY 270615Z AUTO 13007KT 5SM BR OVC006 24/24 A2955 RMK AO2 T02450242

More Conditions Fewer Conditions

10-Day Weather Forecast

Almanac

Astronomy

Apr. 27, 2015 Rise Set
Actual Time
Civil Twilight
Nautical Twilight
Astronomical Twilight
Moon
Length of Visible Light
Length of Day
Tomorrow will be .
, % of the Moon is Illuminated

Today's Extremes

State Highs State Lows

Community

WunderPhotos

Upload Photos

1,817,268 photos uploaded!

WunderBlogs® & News

Nearby

Air Quality

  Air Quality AQ Index Pollutant
Not available.

Snow Depth

Station Depth Elevation

Earthquake Activity

City Distance Mag. Time & Date
Minimum magnitude displayed is 2.5.

Coastal Water Temperatures

Place Temperature

Stations

Nearby Weather Stations

Station Location Temp. Windchill Dew Point Humidity Wind Precip. Elev Updated Type
                   
Tornado Watch
Statement as of 1:27 AM CDT on April 27, 2015


The National Weather Service has issued Tornado Watch 125 in
effect until 9 am CDT this morning for the following areas

In southeast Texas this watch includes 19 counties

Austin Brazos Burleson
Colorado Fort Bend Grimes
Harris Houston Jackson
Liberty Madison Montgomery
Polk San Jacinto Trinity
Walker Waller Washington
Wharton

This includes the cities of... Bellville... Brenham... Brookshire...
Bryan... Caldwell... Cleveland... Coldspring... College Station...
Columbus... Conroe... Corrigan... Crockett... Dayton... Eagle Lake...
Edna... El Campo... Groveton... Hempstead... Houston... Humble...
Huntsville... Katy... Lake Somerville... Liberty... Livingston...
Madisonville... Missouri City... Navasota... Onalaska... Pasadena...
Pierce... Prairie View... Richmond... Rosenberg... Sealy... Shepherd...
Sugar Land... The Woodlands... Tomball... Trinity... Weimar...
Wharton and Willis.